sensor_id;sensor_type;location;lat;lon;timestamp;P1;durP1;ratioP1;P2;durP2;ratioP2
36457;SDS011;22480;50.546;12.292;2024-03-25T00:00:40;4.03;;;3.30;;
36457;SDS011;22480;50.546;12.292;2024-03-25T00:03:05;4.38;;;3.05;;
36457;SDS011;22480;50.546;12.292;2024-03-25T00:05:31;4.72;;;3.67;;
36457;SDS011;22480;50.546;12.292;2024-03-25T00:07:57;4.63;;;2.88;;
36457;SDS011;22480;50.546;12.292;2024-03-25T00:10:23;4.75;;;2.60;;
36457;SDS011;22480;50.546;12.292;2024-03-25T00:12:49;3.15;;;2.47;;
36457;SDS011;22480;50.546;12.292;2024-03-25T00:15:19;5.55;;;3.47;;
36457;SDS011;22480;50.546;12.292;2024-03-25T00:17:46;4.90;;;2.58;;
36457;SDS011;22480;50.546;12.292;2024-03-25T00:20:13;4.13;;;2.40;;
36457;SDS011;22480;50.546;12.292;2024-03-25T00:22:40;3.65;;;2.78;;
36457;SDS011;22480;50.546;12.292;2024-03-25T00:25:06;3.92;;;2.40;;
36457;SDS011;22480;50.546;12.292;2024-03-25T00:27:32;3.97;;;2.58;;
36457;SDS011;22480;50.546;12.292;2024-03-25T00:29:58;4.35;;;2.45;;
36457;SDS011;22480;50.546;12.292;2024-03-25T00:32:24;3.35;;;2.42;;
36457;SDS011;22480;50.546;12.292;2024-03-25T00:34:50;3.00;;;2.40;;
36457;SDS011;22480;50.546;12.292;2024-03-25T00:37:15;4.13;;;1.95;;
36457;SDS011;22480;50.546;12.292;2024-03-25T00:39:41;3.13;;;2.25;;
36457;SDS011;22480;50.546;12.292;2024-03-25T00:42:07;3.78;;;3.08;;
36457;SDS011;22480;50.546;12.292;2024-03-25T00:44:33;2.60;;;2.08;;
36457;SDS011;22480;50.546;12.292;2024-03-25T00:46:58;3.97;;;2.25;;
36457;SDS011;22480;50.546;12.292;2024-03-25T00:49:24;4.68;;;2.47;;
36457;SDS011;22480;50.546;12.292;2024-03-25T00:51:50;3.70;;;1.90;;
36457;SDS011;22480;50.546;12.292;2024-03-25T00:54:15;2.85;;;1.88;;
36457;SDS011;22480;50.546;12.292;2024-03-25T00:56:41;4.22;;;1.98;;
36457;SDS011;22480;50.546;12.292;2024-03-25T00:59:07;2.83;;;1.92;;
36457;SDS011;22480;50.546;12.292;2024-03-25T01:01:32;2.78;;;1.30;;
36457;SDS011;22480;50.546;12.292;2024-03-25T01:04:01;3.83;;;1.92;;
36457;SDS011;22480;50.546;12.292;2024-03-25T01:06:27;2.38;;;1.90;;
36457;SDS011;22480;50.546;12.292;2024-03-25T01:08:52;2.25;;;1.85;;
36457;SDS011;22480;50.546;12.292;2024-03-25T01:11:18;3.85;;;1.98;;
36457;SDS011;22480;50.546;12.292;2024-03-25T01:13:44;4.85;;;1.83;;
36457;SDS011;22480;50.546;12.292;2024-03-25T01:16:10;3.28;;;1.48;;
36457;SDS011;22480;50.546;12.292;2024-03-25T01:18:36;3.58;;;2.15;;
36457;SDS011;22480;50.546;12.292;2024-03-25T01:21:02;3.92;;;2.03;;
36457;SDS011;22480;50.546;12.292;2024-03-25T01:23:27;2.47;;;1.70;;
36457;SDS011;22480;50.546;12.292;2024-03-25T01:25:54;3.10;;;1.70;;
36457;SDS011;22480;50.546;12.292;2024-03-25T01:28:19;1.60;;;1.45;;
36457;SDS011;22480;50.546;12.292;2024-03-25T01:30:45;2.00;;;1.55;;
36457;SDS011;22480;50.546;12.292;2024-03-25T01:33:11;2.58;;;1.58;;
36457;SDS011;22480;50.546;12.292;2024-03-25T01:35:36;3.22;;;1.70;;
36457;SDS011;22480;50.546;12.292;2024-03-25T01:38:02;2.55;;;1.48;;
36457;SDS011;22480;50.546;12.292;2024-03-25T01:40:28;1.90;;;1.63;;
36457;SDS011;22480;50.546;12.292;2024-03-25T01:43:03;2.78;;;1.77;;
36457;SDS011;22480;50.546;12.292;2024-03-25T01:45:30;2.33;;;1.50;;
36457;SDS011;22480;50.546;12.292;2024-03-25T01:48:02;2.22;;;1.98;;
36457;SDS011;22480;50.546;12.292;2024-03-25T01:50:31;6.22;;;2.03;;
36457;SDS011;22480;50.546;12.292;2024-03-25T01:53:00;1.67;;;1.45;;
36457;SDS011;22480;50.546;12.292;2024-03-25T01:55:27;6.32;;;2.63;;
36457;SDS011;22480;50.546;12.292;2024-03-25T01:57:55;1.83;;;1.38;;
36457;SDS011;22480;50.546;12.292;2024-03-25T02:00:21;2.90;;;1.48;;
36457;SDS011;22480;50.546;12.292;2024-03-25T02:02:49;1.92;;;1.42;;
36457;SDS011;22480;50.546;12.292;2024-03-25T02:05:17;2.75;;;1.45;;
36457;SDS011;22480;50.546;12.292;2024-03-25T02:07:44;4.20;;;1.48;;
36457;SDS011;22480;50.546;12.292;2024-03-25T02:10:10;1.77;;;1.33;;
36457;SDS011;22480;50.546;12.292;2024-03-25T02:12:40;2.22;;;1.50;;
36457;SDS011;22480;50.546;12.292;2024-03-25T02:15:09;2.63;;;1.55;;
36457;SDS011;22480;50.546;12.292;2024-03-25T02:17:36;2.85;;;1.77;;
36457;SDS011;22480;50.546;12.292;2024-03-25T02:20:02;2.03;;;1.40;;
36457;SDS011;22480;50.546;12.292;2024-03-25T02:22:30;2.65;;;1.63;;
36457;SDS011;22480;50.546;12.292;2024-03-25T02:25:06;1.95;;;1.70;;
36457;SDS011;22480;50.546;12.292;2024-03-25T02:27:33;1.67;;;1.50;;
36457;SDS011;22480;50.546;12.292;2024-03-25T02:32:33;4.05;;;1.95;;
36457;SDS011;22480;50.546;12.292;2024-03-25T02:34:59;2.00;;;1.52;;
36457;SDS011;22480;50.546;12.292;2024-03-25T02:37:28;3.83;;;1.70;;
36457;SDS011;22480;50.546;12.292;2024-03-25T02:39:55;3.20;;;2.22;;
36457;SDS011;22480;50.546;12.292;2024-03-25T02:42:27;3.05;;;2.13;;
36457;SDS011;22480;50.546;12.292;2024-03-25T02:44:57;3.75;;;2.38;;
36457;SDS011;22480;50.546;12.292;2024-03-25T02:47:24;3.15;;;1.75;;
36457;SDS011;22480;50.546;12.292;2024-03-25T02:49:50;4.05;;;2.03;;
36457;SDS011;22480;50.546;12.292;2024-03-25T02:52:16;2.50;;;1.77;;
36457;SDS011;22480;50.546;12.292;2024-03-25T02:54:43;3.22;;;1.58;;
36457;SDS011;22480;50.546;12.292;2024-03-25T02:57:09;1.58;;;1.48;;
36457;SDS011;22480;50.546;12.292;2024-03-25T02:59:35;2.53;;;1.25;;
36457;SDS011;22480;50.546;12.292;2024-03-25T03:02:00;2.17;;;1.55;;
36457;SDS011;22480;50.546;12.292;2024-03-25T03:04:26;3.38;;;1.40;;
36457;SDS011;22480;50.546;12.292;2024-03-25T03:06:52;1.85;;;1.35;;
36457;SDS011;22480;50.546;12.292;2024-03-25T03:09:18;1.42;;;1.33;;
36457;SDS011;22480;50.546;12.292;2024-03-25T03:11:44;1.73;;;1.35;;
36457;SDS011;22480;50.546;12.292;2024-03-25T03:14:10;1.42;;;1.10;;
36457;SDS011;22480;50.546;12.292;2024-03-25T03:16:36;1.58;;;1.13;;
36457;SDS011;22480;50.546;12.292;2024-03-25T03:19:01;1.02;;;0.82;;
36457;SDS011;22480;50.546;12.292;2024-03-25T03:21:27;2.72;;;1.20;;
36457;SDS011;22480;50.546;12.292;2024-03-25T03:23:55;1.63;;;1.20;;
36457;SDS011;22480;50.546;12.292;2024-03-25T03:26:21;2.17;;;1.00;;
36457;SDS011;22480;50.546;12.292;2024-03-25T03:28:46;1.80;;;0.98;;
36457;SDS011;22480;50.546;12.292;2024-03-25T03:31:12;1.73;;;0.90;;
36457;SDS011;22480;50.546;12.292;2024-03-25T03:33:38;1.02;;;0.82;;
36457;SDS011;22480;50.546;12.292;2024-03-25T03:36:03;0.80;;;0.80;;
36457;SDS011;22480;50.546;12.292;2024-03-25T03:38:29;2.47;;;1.00;;
36457;SDS011;22480;50.546;12.292;2024-03-25T03:40:58;2.30;;;1.02;;
36457;SDS011;22480;50.546;12.292;2024-03-25T03:43:25;3.15;;;1.08;;
36457;SDS011;22480;50.546;12.292;2024-03-25T03:45:50;1.17;;;0.93;;
36457;SDS011;22480;50.546;12.292;2024-03-25T03:48:16;2.55;;;0.93;;
36457;SDS011;22480;50.546;12.292;2024-03-25T03:50:42;5.03;;;1.10;;
36457;SDS011;22480;50.546;12.292;2024-03-25T03:53:08;1.55;;;1.00;;
36457;SDS011;22480;50.546;12.292;2024-03-25T03:55:34;1.48;;;0.95;;
36457;SDS011;22480;50.546;12.292;2024-03-25T03:58:00;4.25;;;1.10;;
36457;SDS011;22480;50.546;12.292;2024-03-25T04:00:26;2.53;;;0.75;;
36457;SDS011;22480;50.546;12.292;2024-03-25T04:02:52;3.60;;;1.30;;
36457;SDS011;22480;50.546;12.292;2024-03-25T04:05:18;2.92;;;1.27;;
36457;SDS011;22480;50.546;12.292;2024-03-25T04:07:44;1.63;;;1.10;;
36457;SDS011;22480;50.546;12.292;2024-03-25T04:10:10;2.05;;;1.13;;
36457;SDS011;22480;50.546;12.292;2024-03-25T04:12:36;1.95;;;1.13;;
36457;SDS011;22480;50.546;12.292;2024-03-25T04:15:02;1.05;;;0.95;;
36457;SDS011;22480;50.546;12.292;2024-03-25T04:17:28;2.15;;;1.30;;
36457;SDS011;22480;50.546;12.292;2024-03-25T04:19:54;1.85;;;1.15;;
36457;SDS011;22480;50.546;12.292;2024-03-25T04:22:20;2.00;;;1.20;;
36457;SDS011;22480;50.546;12.292;2024-03-25T04:24:46;2.40;;;1.20;;
36457;SDS011;22480;50.546;12.292;2024-03-25T04:27:12;2.17;;;1.42;;
36457;SDS011;22480;50.546;12.292;2024-03-25T04:29:38;2.65;;;1.55;;
36457;SDS011;22480;50.546;12.292;2024-03-25T04:32:03;4.85;;;1.60;;
36457;SDS011;22480;50.546;12.292;2024-03-25T04:34:29;3.72;;;1.70;;
36457;SDS011;22480;50.546;12.292;2024-03-25T04:36:55;2.75;;;1.70;;
36457;SDS011;22480;50.546;12.292;2024-03-25T04:39:21;4.05;;;1.83;;
36457;SDS011;22480;50.546;12.292;2024-03-25T04:41:48;2.30;;;2.10;;
36457;SDS011;22480;50.546;12.292;2024-03-25T04:44:13;5.83;;;1.70;;
36457;SDS011;22480;50.546;12.292;2024-03-25T04:46:40;4.72;;;2.20;;
36457;SDS011;22480;50.546;12.292;2024-03-25T04:49:05;2.38;;;1.73;;
36457;SDS011;22480;50.546;12.292;2024-03-25T04:51:31;3.08;;;1.92;;
36457;SDS011;22480;50.546;12.292;2024-03-25T04:53:57;3.53;;;2.00;;
36457;SDS011;22480;50.546;12.292;2024-03-25T04:56:23;5.72;;;2.30;;
36457;SDS011;22480;50.546;12.292;2024-03-25T04:58:49;3.25;;;2.55;;
36457;SDS011;22480;50.546;12.292;2024-03-25T05:01:14;3.25;;;2.22;;
36457;SDS011;22480;50.546;12.292;2024-03-25T05:03:40;4.97;;;2.40;;
36457;SDS011;22480;50.546;12.292;2024-03-25T05:06:06;4.45;;;2.80;;
36457;SDS011;22480;50.546;12.292;2024-03-25T05:08:35;5.53;;;2.83;;
36457;SDS011;22480;50.546;12.292;2024-03-25T05:11:01;5.13;;;2.95;;
36457;SDS011;22480;50.546;12.292;2024-03-25T05:13:27;8.77;;;4.20;;
36457;SDS011;22480;50.546;12.292;2024-03-25T05:15:52;6.78;;;3.15;;
36457;SDS011;22480;50.546;12.292;2024-03-25T05:18:18;8.07;;;3.38;;
36457;SDS011;22480;50.546;12.292;2024-03-25T05:20:44;8.68;;;5.18;;
36457;SDS011;22480;50.546;12.292;2024-03-25T05:23:10;5.93;;;3.90;;
36457;SDS011;22480;50.546;12.292;2024-03-25T05:25:36;6.25;;;3.55;;
36457;SDS011;22480;50.546;12.292;2024-03-25T05:28:03;6.32;;;4.03;;
36457;SDS011;22480;50.546;12.292;2024-03-25T05:30:29;8.00;;;3.65;;
36457;SDS011;22480;50.546;12.292;2024-03-25T05:32:55;15.45;;;6.13;;
36457;SDS011;22480;50.546;12.292;2024-03-25T05:35:21;5.85;;;3.72;;
36457;SDS011;22480;50.546;12.292;2024-03-25T05:37:46;5.07;;;3.25;;
36457;SDS011;22480;50.546;12.292;2024-03-25T05:40:12;4.07;;;2.55;;
36457;SDS011;22480;50.546;12.292;2024-03-25T05:42:40;4.97;;;3.13;;
36457;SDS011;22480;50.546;12.292;2024-03-25T05:45:06;5.18;;;3.38;;
36457;SDS011;22480;50.546;12.292;2024-03-25T05:47:32;6.40;;;3.47;;
36457;SDS011;22480;50.546;12.292;2024-03-25T05:49:57;6.55;;;3.80;;
36457;SDS011;22480;50.546;12.292;2024-03-25T05:52:28;7.45;;;3.20;;
36457;SDS011;22480;50.546;12.292;2024-03-25T05:54:54;5.43;;;3.30;;
36457;SDS011;22480;50.546;12.292;2024-03-25T05:57:19;6.53;;;3.15;;
36457;SDS011;22480;50.546;12.292;2024-03-25T05:59:45;6.20;;;3.00;;
36457;SDS011;22480;50.546;12.292;2024-03-25T06:02:11;7.22;;;3.25;;
36457;SDS011;22480;50.546;12.292;2024-03-25T06:04:37;5.53;;;3.27;;
36457;SDS011;22480;50.546;12.292;2024-03-25T06:07:03;7.07;;;3.45;;
36457;SDS011;22480;50.546;12.292;2024-03-25T06:09:28;6.93;;;2.75;;
36457;SDS011;22480;50.546;12.292;2024-03-25T06:11:54;4.75;;;2.63;;
36457;SDS011;22480;50.546;12.292;2024-03-25T06:14:20;3.97;;;2.42;;
36457;SDS011;22480;50.546;12.292;2024-03-25T06:16:45;5.60;;;2.70;;
36457;SDS011;22480;50.546;12.292;2024-03-25T06:19:12;7.28;;;3.03;;
36457;SDS011;22480;50.546;12.292;2024-03-25T06:21:37;7.93;;;2.78;;
36457;SDS011;22480;50.546;12.292;2024-03-25T06:24:04;4.15;;;2.58;;
36457;SDS011;22480;50.546;12.292;2024-03-25T06:26:30;5.80;;;2.53;;
36457;SDS011;22480;50.546;12.292;2024-03-25T06:28:55;6.82;;;2.50;;
36457;SDS011;22480;50.546;12.292;2024-03-25T06:31:21;7.10;;;2.92;;
36457;SDS011;22480;50.546;12.292;2024-03-25T06:34:05;7.00;;;2.55;;
36457;SDS011;22480;50.546;12.292;2024-03-25T06:36:49;16.95;;;6.15;;
36457;SDS011;22480;50.546;12.292;2024-03-25T06:39:15;20.42;;;8.38;;
36457;SDS011;22480;50.546;12.292;2024-03-25T06:41:41;9.75;;;4.43;;
36457;SDS011;22480;50.546;12.292;2024-03-25T06:44:07;4.03;;;3.08;;
36457;SDS011;22480;50.546;12.292;2024-03-25T06:46:33;5.43;;;3.17;;
36457;SDS011;22480;50.546;12.292;2024-03-25T06:48:59;7.93;;;4.63;;
36457;SDS011;22480;50.546;12.292;2024-03-25T06:51:25;10.85;;;5.13;;
36457;SDS011;22480;50.546;12.292;2024-03-25T06:53:51;7.68;;;3.70;;
36457;SDS011;22480;50.546;12.292;2024-03-25T06:56:17;10.02;;;4.15;;
36457;SDS011;22480;50.546;12.292;2024-03-25T06:58:43;9.95;;;4.72;;
36457;SDS011;22480;50.546;12.292;2024-03-25T07:01:09;10.10;;;4.15;;
36457;SDS011;22480;50.546;12.292;2024-03-25T07:03:37;5.57;;;3.20;;
36457;SDS011;22480;50.546;12.292;2024-03-25T07:06:04;12.30;;;6.65;;
36457;SDS011;22480;50.546;12.292;2024-03-25T07:08:30;13.25;;;7.05;;
36457;SDS011;22480;50.546;12.292;2024-03-25T07:10:56;11.70;;;5.50;;
36457;SDS011;22480;50.546;12.292;2024-03-25T07:13:22;14.55;;;7.15;;
36457;SDS011;22480;50.546;12.292;2024-03-25T07:15:48;7.85;;;3.22;;
36457;SDS011;22480;50.546;12.292;2024-03-25T07:18:14;7.90;;;5.00;;
36457;SDS011;22480;50.546;12.292;2024-03-25T07:20:40;8.45;;;3.47;;
36457;SDS011;22480;50.546;12.292;2024-03-25T07:23:07;9.80;;;4.82;;
36457;SDS011;22480;50.546;12.292;2024-03-25T07:25:32;10.15;;;4.68;;
36457;SDS011;22480;50.546;12.292;2024-03-25T07:27:58;4.72;;;3.50;;
36457;SDS011;22480;50.546;12.292;2024-03-25T07:30:24;6.60;;;3.38;;
36457;SDS011;22480;50.546;12.292;2024-03-25T07:32:56;7.45;;;2.60;;
36457;SDS011;22480;50.546;12.292;2024-03-25T07:35:22;9.40;;;2.88;;
36457;SDS011;22480;50.546;12.292;2024-03-25T07:37:48;6.03;;;2.47;;
36457;SDS011;22480;50.546;12.292;2024-03-25T07:40:16;2.75;;;2.13;;
36457;SDS011;22480;50.546;12.292;2024-03-25T07:42:42;3.65;;;1.50;;
36457;SDS011;22480;50.546;12.292;2024-03-25T07:45:08;3.80;;;2.22;;
36457;SDS011;22480;50.546;12.292;2024-03-25T07:47:34;3.15;;;1.50;;
36457;SDS011;22480;50.546;12.292;2024-03-25T07:50:00;4.13;;;1.73;;
36457;SDS011;22480;50.546;12.292;2024-03-25T07:52:26;3.83;;;1.77;;
36457;SDS011;22480;50.546;12.292;2024-03-25T07:54:52;3.25;;;1.55;;
36457;SDS011;22480;50.546;12.292;2024-03-25T07:57:18;2.38;;;1.50;;
36457;SDS011;22480;50.546;12.292;2024-03-25T07:59:47;2.85;;;1.38;;
36457;SDS011;22480;50.546;12.292;2024-03-25T08:02:13;2.88;;;1.70;;
36457;SDS011;22480;50.546;12.292;2024-03-25T08:04:39;1.83;;;1.65;;
36457;SDS011;22480;50.546;12.292;2024-03-25T08:07:05;4.72;;;1.42;;
36457;SDS011;22480;50.546;12.292;2024-03-25T08:09:31;2.83;;;1.10;;
36457;SDS011;22480;50.546;12.292;2024-03-25T08:11:56;1.67;;;0.80;;
36457;SDS011;22480;50.546;12.292;2024-03-25T08:14:22;7.57;;;4.10;;
36457;SDS011;22480;50.546;12.292;2024-03-25T08:16:48;3.67;;;2.10;;
36457;SDS011;22480;50.546;12.292;2024-03-25T08:19:14;2.63;;;1.25;;
36457;SDS011;22480;50.546;12.292;2024-03-25T08:21:40;3.13;;;1.90;;
36457;SDS011;22480;50.546;12.292;2024-03-25T08:24:05;2.83;;;1.17;;
36457;SDS011;22480;50.546;12.292;2024-03-25T08:26:31;2.38;;;0.80;;
36457;SDS011;22480;50.546;12.292;2024-03-25T08:28:57;3.95;;;1.27;;
36457;SDS011;22480;50.546;12.292;2024-03-25T08:31:23;6.07;;;1.40;;
36457;SDS011;22480;50.546;12.292;2024-03-25T08:33:48;2.22;;;0.90;;
36457;SDS011;22480;50.546;12.292;2024-03-25T08:36:14;1.15;;;1.05;;
36457;SDS011;22480;50.546;12.292;2024-03-25T08:38:40;2.95;;;1.42;;
36457;SDS011;22480;50.546;12.292;2024-03-25T08:41:06;1.45;;;1.20;;
36457;SDS011;22480;50.546;12.292;2024-03-25T08:43:32;3.70;;;2.00;;
36457;SDS011;22480;50.546;12.292;2024-03-25T08:45:57;3.20;;;1.70;;
36457;SDS011;22480;50.546;12.292;2024-03-25T08:48:23;1.80;;;0.90;;
36457;SDS011;22480;50.546;12.292;2024-03-25T08:50:49;2.72;;;1.48;;
36457;SDS011;22480;50.546;12.292;2024-03-25T08:53:15;1.85;;;1.15;;
36457;SDS011;22480;50.546;12.292;2024-03-25T08:55:45;3.17;;;1.00;;
36457;SDS011;22480;50.546;12.292;2024-03-25T08:58:12;2.13;;;0.75;;
36457;SDS011;22480;50.546;12.292;2024-03-25T09:00:43;2.78;;;1.75;;
36457;SDS011;22480;50.546;12.292;2024-03-25T09:03:09;1.13;;;0.60;;
36457;SDS011;22480;50.546;12.292;2024-03-25T09:05:36;2.60;;;0.80;;
36457;SDS011;22480;50.546;12.292;2024-03-25T09:08:04;1.30;;;1.10;;
36457;SDS011;22480;50.546;12.292;2024-03-25T09:10:31;1.42;;;0.60;;
36457;SDS011;22480;50.546;12.292;2024-03-25T09:13:16;4.00;;;1.00;;
36457;SDS011;22480;50.546;12.292;2024-03-25T09:15:42;2.65;;;1.63;;
36457;SDS011;22480;50.546;12.292;2024-03-25T09:18:07;2.35;;;1.30;;
36457;SDS011;22480;50.546;12.292;2024-03-25T09:20:33;3.05;;;1.42;;
36457;SDS011;22480;50.546;12.292;2024-03-25T09:22:59;3.17;;;1.30;;
36457;SDS011;22480;50.546;12.292;2024-03-25T09:25:24;1.33;;;0.95;;
36457;SDS011;22480;50.546;12.292;2024-03-25T09:27:50;1.30;;;0.98;;
36457;SDS011;22480;50.546;12.292;2024-03-25T09:30:16;0.82;;;0.63;;
36457;SDS011;22480;50.546;12.292;2024-03-25T09:32:45;1.15;;;0.82;;
36457;SDS011;22480;50.546;12.292;2024-03-25T09:35:11;2.65;;;1.20;;
36457;SDS011;22480;50.546;12.292;2024-03-25T09:37:37;3.95;;;1.20;;
36457;SDS011;22480;50.546;12.292;2024-03-25T09:40:03;3.97;;;0.90;;
36457;SDS011;22480;50.546;12.292;2024-03-25T09:42:39;3.05;;;1.40;;
36457;SDS011;22480;50.546;12.292;2024-03-25T09:45:11;1.52;;;1.10;;
36457;SDS011;22480;50.546;12.292;2024-03-25T09:47:40;0.95;;;0.77;;
36457;SDS011;22480;50.546;12.292;2024-03-25T09:50:10;2.38;;;0.82;;
36457;SDS011;22480;50.546;12.292;2024-03-25T09:52:37;1.88;;;0.85;;
36457;SDS011;22480;50.546;12.292;2024-03-25T09:55:03;1.23;;;0.70;;
36457;SDS011;22480;50.546;12.292;2024-03-25T09:57:29;2.42;;;0.70;;
36457;SDS011;22480;50.546;12.292;2024-03-25T09:59:55;1.50;;;0.73;;
36457;SDS011;22480;50.546;12.292;2024-03-25T10:02:21;1.35;;;0.50;;
36457;SDS011;22480;50.546;12.292;2024-03-25T10:07:23;1.92;;;1.00;;
36457;SDS011;22480;50.546;12.292;2024-03-25T10:09:52;2.00;;;0.82;;
36457;SDS011;22480;50.546;12.292;2024-03-25T10:12:18;2.92;;;1.02;;
36457;SDS011;22480;50.546;12.292;2024-03-25T10:14:43;1.27;;;0.82;;
36457;SDS011;22480;50.546;12.292;2024-03-25T10:17:09;1.45;;;0.75;;
36457;SDS011;22480;50.546;12.292;2024-03-25T10:19:35;2.00;;;0.85;;
36457;SDS011;22480;50.546;12.292;2024-03-25T10:22:04;2.35;;;1.23;;
36457;SDS011;22480;50.546;12.292;2024-03-25T10:24:43;7.88;;;1.75;;
36457;SDS011;22480;50.546;12.292;2024-03-25T10:27:16;2.15;;;1.15;;
36457;SDS011;22480;50.546;12.292;2024-03-25T10:29:45;3.72;;;1.35;;
36457;SDS011;22480;50.546;12.292;2024-03-25T10:32:16;1.52;;;1.10;;
36457;SDS011;22480;50.546;12.292;2024-03-25T10:34:42;2.72;;;0.90;;
36457;SDS011;22480;50.546;12.292;2024-03-25T10:37:09;1.85;;;0.95;;
36457;SDS011;22480;50.546;12.292;2024-03-25T10:39:39;0.95;;;0.60;;
36457;SDS011;22480;50.546;12.292;2024-03-25T10:42:13;2.75;;;0.70;;
36457;SDS011;22480;50.546;12.292;2024-03-25T10:44:43;1.35;;;0.70;;
36457;SDS011;22480;50.546;12.292;2024-03-25T10:47:09;2.88;;;1.25;;
36457;SDS011;22480;50.546;12.292;2024-03-25T10:49:48;2.53;;;1.05;;
36457;SDS011;22480;50.546;12.292;2024-03-25T10:52:15;4.80;;;1.77;;
36457;SDS011;22480;50.546;12.292;2024-03-25T10:54:42;4.05;;;1.33;;
36457;SDS011;22480;50.546;12.292;2024-03-25T10:57:11;1.55;;;0.95;;
36457;SDS011;22480;50.546;12.292;2024-03-25T10:59:38;2.97;;;1.10;;
36457;SDS011;22480;50.546;12.292;2024-03-25T11:02:07;0.80;;;0.60;;
36457;SDS011;22480;50.546;12.292;2024-03-25T11:04:33;2.78;;;0.85;;
36457;SDS011;22480;50.546;12.292;2024-03-25T11:07:10;1.05;;;0.82;;
36457;SDS011;22480;50.546;12.292;2024-03-25T11:09:37;5.30;;;1.00;;
36457;SDS011;22480;50.546;12.292;2024-03-25T11:12:03;1.15;;;0.70;;
36457;SDS011;22480;50.546;12.292;2024-03-25T11:14:30;1.10;;;0.70;;
36457;SDS011;22480;50.546;12.292;2024-03-25T11:16:57;0.70;;;0.60;;
36457;SDS011;22480;50.546;12.292;2024-03-25T11:19:26;2.38;;;0.70;;
36457;SDS011;22480;50.546;12.292;2024-03-25T11:21:53;2.33;;;0.80;;
36457;SDS011;22480;50.546;12.292;2024-03-25T11:24:29;2.22;;;0.90;;
36457;SDS011;22480;50.546;12.292;2024-03-25T11:26:55;3.70;;;1.02;;
36457;SDS011;22480;50.546;12.292;2024-03-25T11:29:21;1.42;;;1.00;;
36457;SDS011;22480;50.546;12.292;2024-03-25T11:31:48;1.60;;;0.85;;
36457;SDS011;22480;50.546;12.292;2024-03-25T11:34:18;1.73;;;0.85;;
36457;SDS011;22480;50.546;12.292;2024-03-25T11:36:46;2.92;;;1.15;;
36457;SDS011;22480;50.546;12.292;2024-03-25T11:39:13;0.98;;;0.90;;
36457;SDS011;22480;50.546;12.292;2024-03-25T11:41:39;2.58;;;1.08;;
36457;SDS011;22480;50.546;12.292;2024-03-25T11:44:07;2.70;;;1.60;;
36457;SDS011;22480;50.546;12.292;2024-03-25T11:46:35;3.90;;;2.00;;
36457;SDS011;22480;50.546;12.292;2024-03-25T11:49:02;3.25;;;1.10;;
36457;SDS011;22480;50.546;12.292;2024-03-25T11:51:33;3.88;;;1.65;;
36457;SDS011;22480;50.546;12.292;2024-03-25T11:53:59;2.45;;;1.40;;
36457;SDS011;22480;50.546;12.292;2024-03-25T11:56:25;3.67;;;1.40;;
36457;SDS011;22480;50.546;12.292;2024-03-25T11:58:51;6.20;;;1.23;;
36457;SDS011;22480;50.546;12.292;2024-03-25T12:01:17;5.13;;;1.20;;
36457;SDS011;22480;50.546;12.292;2024-03-25T12:03:43;2.78;;;0.90;;
36457;SDS011;22480;50.546;12.292;2024-03-25T12:06:09;3.60;;;0.88;;
36457;SDS011;22480;50.546;12.292;2024-03-25T12:08:35;2.45;;;1.02;;
36457;SDS011;22480;50.546;12.292;2024-03-25T12:11:10;1.88;;;1.02;;
36457;SDS011;22480;50.546;12.292;2024-03-25T12:13:45;2.97;;;1.20;;
36457;SDS011;22480;50.546;12.292;2024-03-25T12:16:12;3.25;;;1.23;;
36457;SDS011;22480;50.546;12.292;2024-03-25T12:18:39;3.83;;;1.10;;
36457;SDS011;22480;50.546;12.292;2024-03-25T12:21:06;4.40;;;1.98;;
36457;SDS011;22480;50.546;12.292;2024-03-25T12:23:33;2.17;;;1.00;;
36457;SDS011;22480;50.546;12.292;2024-03-25T12:25:59;2.05;;;1.02;;
36457;SDS011;22480;50.546;12.292;2024-03-25T12:28:26;4.25;;;2.33;;
36457;SDS011;22480;50.546;12.292;2024-03-25T12:30:52;2.80;;;1.13;;
36457;SDS011;22480;50.546;12.292;2024-03-25T12:33:21;1.20;;;1.00;;
36457;SDS011;22480;50.546;12.292;2024-03-25T12:35:51;1.27;;;0.93;;
36457;SDS011;22480;50.546;12.292;2024-03-25T12:38:27;1.70;;;1.23;;
36457;SDS011;22480;50.546;12.292;2024-03-25T12:41:03;3.15;;;1.27;;
36457;SDS011;22480;50.546;12.292;2024-03-25T12:43:32;2.38;;;1.40;;
36457;SDS011;22480;50.546;12.292;2024-03-25T12:45:59;4.45;;;1.75;;
36457;SDS011;22480;50.546;12.292;2024-03-25T12:48:25;3.15;;;1.27;;
36457;SDS011;22480;50.546;12.292;2024-03-25T12:50:51;2.90;;;1.25;;
36457;SDS011;22480;50.546;12.292;2024-03-25T12:53:19;1.33;;;0.93;;
36457;SDS011;22480;50.546;12.292;2024-03-25T12:55:45;1.65;;;1.02;;
36457;SDS011;22480;50.546;12.292;2024-03-25T12:58:11;2.35;;;1.42;;
36457;SDS011;22480;50.546;12.292;2024-03-25T13:00:37;1.50;;;0.70;;
36457;SDS011;22480;50.546;12.292;2024-03-25T13:03:03;5.63;;;1.55;;
36457;SDS011;22480;50.546;12.292;2024-03-25T13:05:31;1.95;;;1.00;;
36457;SDS011;22480;50.546;12.292;2024-03-25T13:07:57;2.22;;;1.58;;
36457;SDS011;22480;50.546;12.292;2024-03-25T13:10:23;4.90;;;1.98;;
36457;SDS011;22480;50.546;12.292;2024-03-25T13:12:49;5.28;;;1.20;;
36457;SDS011;22480;50.546;12.292;2024-03-25T13:15:15;2.38;;;1.10;;
36457;SDS011;22480;50.546;12.292;2024-03-25T13:17:40;1.75;;;0.85;;
36457;SDS011;22480;50.546;12.292;2024-03-25T13:20:06;4.85;;;1.30;;
36457;SDS011;22480;50.546;12.292;2024-03-25T13:22:33;5.32;;;1.33;;
36457;SDS011;22480;50.546;12.292;2024-03-25T13:24:59;2.58;;;1.63;;
36457;SDS011;22480;50.546;12.292;2024-03-25T13:27:25;3.50;;;1.50;;
36457;SDS011;22480;50.546;12.292;2024-03-25T13:29:52;3.40;;;2.10;;
36457;SDS011;22480;50.546;12.292;2024-03-25T13:32:20;1.50;;;1.10;;
36457;SDS011;22480;50.546;12.292;2024-03-25T13:34:48;3.10;;;1.25;;
36457;SDS011;22480;50.546;12.292;2024-03-25T13:37:14;2.20;;;1.23;;
36457;SDS011;22480;50.546;12.292;2024-03-25T13:39:39;2.28;;;1.10;;
36457;SDS011;22480;50.546;12.292;2024-03-25T13:42:05;2.70;;;1.50;;
36457;SDS011;22480;50.546;12.292;2024-03-25T13:44:31;3.20;;;1.77;;
36457;SDS011;22480;50.546;12.292;2024-03-25T13:46:56;3.10;;;1.20;;
36457;SDS011;22480;50.546;12.292;2024-03-25T13:49:22;3.05;;;1.23;;
36457;SDS011;22480;50.546;12.292;2024-03-25T13:51:58;4.32;;;1.20;;
36457;SDS011;22480;50.546;12.292;2024-03-25T13:54:27;3.22;;;1.23;;
36457;SDS011;22480;50.546;12.292;2024-03-25T13:56:52;3.45;;;1.10;;
36457;SDS011;22480;50.546;12.292;2024-03-25T13:59:18;2.38;;;1.05;;
36457;SDS011;22480;50.546;12.292;2024-03-25T14:01:44;2.08;;;0.90;;
36457;SDS011;22480;50.546;12.292;2024-03-25T14:04:10;2.70;;;1.00;;
36457;SDS011;22480;50.546;12.292;2024-03-25T14:06:35;3.08;;;1.20;;
36457;SDS011;22480;50.546;12.292;2024-03-25T14:09:02;3.47;;;1.65;;
36457;SDS011;22480;50.546;12.292;2024-03-25T14:11:31;2.10;;;1.10;;
36457;SDS011;22480;50.546;12.292;2024-03-25T14:13:57;4.03;;;0.90;;
36457;SDS011;22480;50.546;12.292;2024-03-25T14:16:22;2.47;;;0.90;;
36457;SDS011;22480;50.546;12.292;2024-03-25T14:18:48;2.05;;;0.90;;
36457;SDS011;22480;50.546;12.292;2024-03-25T14:21:14;1.33;;;0.80;;
36457;SDS011;22480;50.546;12.292;2024-03-25T14:23:39;3.20;;;1.05;;
36457;SDS011;22480;50.546;12.292;2024-03-25T14:26:09;7.10;;;1.00;;
36457;SDS011;22480;50.546;12.292;2024-03-25T14:28:35;1.95;;;1.30;;
36457;SDS011;22480;50.546;12.292;2024-03-25T14:31:02;2.72;;;1.00;;
36457;SDS011;22480;50.546;12.292;2024-03-25T14:33:28;2.10;;;1.00;;
36457;SDS011;22480;50.546;12.292;2024-03-25T14:35:54;1.80;;;0.70;;